createdAt,value
2018-12-17T00:01:06.098Z,30.70
2018-12-17T00:03:34.491Z,31.47
2018-12-17T00:06:03.982Z,31.07
2018-12-17T00:08:33.177Z,30.83
2018-12-17T00:11:02.212Z,31.27
2018-12-17T00:13:30.573Z,31.57
2018-12-17T00:15:58.825Z,32.97
2018-12-17T00:18:27.153Z,33.30
2018-12-17T00:20:55.459Z,31.50
2018-12-17T00:23:23.831Z,30.93
2018-12-17T00:25:52.132Z,32.20
2018-12-17T00:28:20.443Z,31.70
2018-12-17T00:30:48.696Z,30.60
2018-12-17T00:33:16.961Z,29.50
2018-12-17T00:35:45.206Z,29.33
2018-12-17T00:38:13.499Z,29.97
2018-12-17T00:40:42.068Z,28.10
2018-12-17T00:43:17.085Z,30.30
2018-12-17T00:45:45.471Z,26.90
2018-12-17T00:48:13.826Z,27.67
2018-12-17T00:50:42.134Z,27.87
2018-12-17T00:53:10.438Z,28.73
2018-12-17T00:55:38.742Z,29.47
2018-12-17T00:58:07.014Z,29.23
2018-12-17T01:00:35.336Z,28.70
2018-12-17T01:03:03.731Z,29.53
2018-12-17T01:05:32.164Z,28.80
2018-12-17T01:08:00.594Z,29.00
2018-12-17T01:10:28.878Z,28.90
2018-12-17T01:12:57.199Z,28.30
2018-12-17T01:15:25.435Z,30.30
2018-12-17T01:17:53.678Z,30.30
2018-12-17T01:20:21.951Z,30.13
2018-12-17T01:22:50.370Z,30.47
2018-12-17T01:25:18.745Z,30.03
2018-12-17T01:27:47.013Z,30.07
2018-12-17T01:30:15.248Z,29.97
2018-12-17T01:32:43.629Z,29.60
2018-12-17T01:35:11.902Z,29.10
2018-12-17T01:37:40.179Z,29.03
2018-12-17T01:40:08.515Z,29.77
2018-12-17T01:42:36.777Z,30.67
2018-12-17T01:45:05.751Z,29.40
2018-12-17T01:47:34.028Z,30.27
2018-12-17T01:50:02.304Z,31.77
2018-12-17T01:52:30.672Z,30.77
2018-12-17T01:54:58.893Z,32.07
2018-12-17T01:57:27.250Z,31.13
2018-12-17T01:59:55.505Z,31.40
2018-12-17T02:02:23.843Z,28.93
2018-12-17T02:04:52.184Z,30.80
2018-12-17T02:07:20.409Z,30.10
2018-12-17T02:09:48.686Z,30.93
2018-12-17T02:12:17.023Z,31.63
2018-12-17T02:14:45.285Z,33.80
2018-12-17T02:17:13.648Z,32.93
2018-12-17T02:19:41.880Z,31.87
2018-12-17T02:22:10.213Z,31.80
2018-12-17T02:24:38.473Z,31.87
2018-12-17T02:27:06.866Z,30.27
2018-12-17T02:29:35.107Z,33.00
2018-12-17T02:32:03.367Z,34.13
2018-12-17T02:34:31.618Z,33.07
2018-12-17T02:36:59.874Z,30.50
2018-12-17T02:39:28.168Z,31.43
2018-12-17T02:41:56.469Z,31.00
2018-12-17T02:44:24.901Z,32.30
2018-12-17T02:46:53.251Z,33.77
2018-12-17T02:49:21.834Z,31.10
2018-12-17T02:51:50.157Z,32.70
2018-12-17T02:54:18.508Z,31.80
2018-12-17T02:56:46.787Z,32.00
2018-12-17T02:59:15.633Z,30.13
2018-12-17T03:01:43.927Z,29.27
2018-12-17T03:04:12.520Z,34.33
2018-12-17T03:06:40.791Z,36.00
2018-12-17T03:09:09.024Z,35.37
2018-12-17T03:11:38.624Z,35.27
2018-12-17T03:14:07.015Z,33.50
2018-12-17T03:16:35.347Z,37.97
2018-12-17T03:19:03.595Z,35.17
2018-12-17T03:21:31.855Z,36.23
2018-12-17T03:24:00.341Z,37.17
2018-12-17T03:26:28.661Z,34.73
2018-12-17T03:28:57.352Z,35.97
2018-12-17T03:31:25.623Z,36.87
2018-12-17T03:33:54.004Z,35.67
2018-12-17T03:36:22.322Z,36.23
2018-12-17T03:38:50.599Z,35.47
2018-12-17T03:41:18.989Z,36.37
2018-12-17T03:43:47.271Z,36.00
2018-12-17T03:46:15.585Z,37.60
2018-12-17T03:48:43.906Z,36.43
2018-12-17T03:51:12.180Z,36.80
2018-12-17T03:53:40.391Z,38.23
2018-12-17T03:56:09.328Z,36.97
2018-12-17T03:58:37.606Z,37.83
2018-12-17T04:01:05.893Z,39.87
2018-12-17T04:03:34.221Z,37.63
2018-12-17T04:06:02.841Z,39.03
2018-12-17T04:08:31.367Z,39.07
2018-12-17T04:10:59.665Z,38.13
2018-12-17T04:13:27.921Z,40.53
2018-12-17T04:15:56.546Z,42.47
2018-12-17T04:18:25.785Z,38.33
2018-12-17T04:20:54.174Z,39.90
2018-12-17T04:23:22.451Z,39.60
2018-12-17T04:25:51.149Z,38.53
2018-12-17T04:28:19.682Z,40.63
2018-12-17T04:30:47.929Z,44.27
2018-12-17T04:33:16.334Z,45.23
2018-12-17T04:35:44.939Z,43.83
2018-12-17T04:38:13.530Z,44.80
2018-12-17T04:40:42.144Z,49.33
2018-12-17T04:43:10.416Z,48.77
2018-12-17T04:45:38.839Z,44.63
2018-12-17T04:48:07.218Z,45.67
2018-12-17T04:50:35.466Z,45.20
2018-12-17T04:53:03.730Z,42.27
2018-12-17T04:55:31.992Z,43.33
2018-12-17T04:58:00.673Z,40.67
2018-12-17T05:00:28.981Z,40.73
2018-12-17T05:02:57.505Z,40.87
2018-12-17T05:05:25.829Z,40.07
2018-12-17T05:07:55.198Z,42.53
2018-12-17T05:10:23.482Z,43.00
2018-12-17T05:12:51.732Z,40.97
2018-12-17T05:15:20.027Z,43.20
2018-12-17T05:17:48.368Z,43.47
2018-12-17T05:20:16.703Z,43.50
2018-12-17T05:22:45.425Z,46.83
2018-12-17T05:25:13.734Z,44.43
2018-12-17T05:27:42.353Z,44.83
2018-12-17T05:30:10.937Z,43.00
2018-12-17T05:32:39.360Z,44.70
2018-12-17T05:35:07.608Z,42.03
2018-12-17T05:37:36.021Z,43.07
2018-12-17T05:40:05.211Z,41.00
2018-12-17T05:42:33.459Z,42.70
2018-12-17T05:45:02.221Z,41.83
2018-12-17T05:47:30.618Z,40.90
2018-12-17T05:49:58.975Z,42.63
2018-12-17T05:52:27.662Z,41.77
2018-12-17T05:54:55.935Z,44.13
2018-12-17T05:57:24.161Z,41.27
2018-12-17T05:59:52.489Z,42.47
2018-12-17T06:02:20.780Z,41.13
2018-12-17T06:04:49.027Z,42.00
2018-12-17T06:07:17.366Z,43.53
2018-12-17T06:09:45.683Z,44.10
2018-12-17T06:12:13.977Z,42.27
2018-12-17T06:14:42.216Z,43.37
2018-12-17T06:17:10.569Z,42.77
2018-12-17T06:19:38.869Z,42.80
2018-12-17T06:22:07.137Z,44.77
2018-12-17T06:24:35.470Z,43.30
2018-12-17T06:27:03.765Z,43.47
2018-12-17T06:29:35.576Z,44.50
2018-12-17T06:32:02.448Z,44.93
2018-12-17T06:34:30.778Z,45.07
2018-12-17T06:36:59.067Z,46.77
2018-12-17T06:39:27.462Z,45.67
2018-12-17T06:41:55.782Z,43.73
2018-12-17T06:44:24.653Z,44.33
2018-12-17T06:46:52.997Z,44.37
2018-12-17T06:49:21.243Z,42.90
2018-12-17T06:51:49.632Z,41.90
2018-12-17T06:54:18.297Z,43.13
2018-12-17T06:56:46.538Z,42.90
2018-12-17T06:59:14.939Z,43.67
2018-12-17T07:01:43.201Z,41.13
2018-12-17T07:04:11.480Z,42.53
2018-12-17T07:06:39.743Z,43.00
2018-12-17T07:09:08.005Z,40.97
2018-12-17T07:11:36.277Z,42.37
2018-12-17T07:14:04.629Z,42.40
2018-12-17T07:16:32.949Z,43.40
2018-12-17T07:19:01.328Z,43.07
2018-12-17T07:21:29.571Z,41.43
2018-12-17T07:23:58.932Z,43.43
2018-12-17T07:26:28.784Z,42.03
2018-12-17T07:28:57.331Z,42.30
2018-12-17T07:31:25.597Z,46.60
2018-12-17T07:33:53.945Z,44.23
2018-12-17T07:36:29.570Z,43.00
2018-12-17T07:38:57.920Z,42.83
2018-12-17T07:41:26.255Z,43.57
2018-12-17T07:43:54.670Z,43.47
2018-12-17T07:46:23.033Z,42.47
2018-12-17T07:48:57.109Z,43.83
2018-12-17T07:51:25.473Z,40.50
2018-12-17T07:53:53.857Z,42.47
2018-12-17T07:59:16.123Z,41.67
2018-12-17T08:01:44.515Z,43.37
2018-12-17T08:04:12.900Z,43.83
2018-12-17T08:06:41.125Z,41.73
2018-12-17T08:09:09.387Z,45.37
2018-12-17T08:11:37.676Z,45.70
2018-12-17T08:14:05.937Z,44.23
2018-12-17T08:16:34.194Z,44.97
2018-12-17T08:19:02.544Z,42.83
2018-12-17T08:21:30.807Z,45.60
2018-12-17T08:23:59.044Z,45.93
2018-12-17T08:26:27.331Z,43.47
2018-12-17T08:28:55.643Z,42.87
2018-12-17T08:31:24.015Z,44.27
2018-12-17T08:33:52.385Z,46.77
2018-12-17T08:36:20.895Z,46.70
2018-12-17T08:38:49.153Z,46.83
2018-12-17T08:41:17.543Z,47.63
2018-12-17T08:43:46.086Z,47.50
2018-12-17T08:46:14.348Z,49.40
2018-12-17T08:48:42.723Z,47.60
2018-12-17T08:51:11.026Z,46.50
2018-12-17T08:53:39.253Z,47.60
2018-12-17T08:56:07.473Z,49.37
2018-12-17T08:58:35.881Z,47.50
2018-12-17T09:01:04.128Z,48.10
2018-12-17T09:03:32.516Z,48.50
2018-12-17T09:06:00.740Z,48.37
2018-12-17T09:09:53.179Z,43.97
2018-12-17T09:12:21.487Z,44.40
2018-12-17T09:14:49.843Z,43.80
2018-12-17T09:17:18.088Z,45.20
2018-12-17T09:19:46.371Z,46.17
2018-12-17T09:22:14.762Z,47.20
2018-12-17T09:24:43.059Z,48.57
2018-12-17T09:27:11.676Z,46.50
2018-12-17T09:29:39.975Z,48.63
2018-12-17T09:32:08.240Z,45.37
2018-12-17T09:34:36.501Z,46.40
2018-12-17T09:37:04.888Z,47.17
2018-12-17T09:39:33.166Z,45.67
2018-12-17T09:42:01.431Z,46.80
2018-12-17T09:44:29.762Z,47.50
2018-12-17T09:46:58.030Z,46.93
2018-12-17T09:49:26.463Z,45.13
2018-12-17T09:51:54.695Z,47.67
2018-12-17T09:54:22.970Z,48.43
2018-12-17T09:56:51.270Z,47.13
2018-12-17T09:59:19.497Z,49.83
2018-12-17T10:01:51.237Z,50.37
2018-12-17T10:04:20.090Z,50.33
2018-12-17T10:06:48.704Z,50.83
2018-12-17T10:09:16.983Z,49.90
2018-12-17T10:11:45.202Z,51.77
2018-12-17T10:14:13.561Z,51.57
2018-12-17T10:16:41.871Z,51.80
2018-12-17T10:19:10.127Z,51.57
2018-12-17T10:21:38.488Z,52.87
2018-12-17T10:24:06.813Z,53.10
2018-12-17T10:26:35.280Z,49.83
2018-12-17T10:29:03.564Z,46.53
2018-12-17T10:31:31.819Z,46.87
2018-12-17T10:34:00.083Z,46.07
2018-12-17T10:36:28.381Z,47.10
2018-12-17T10:38:56.683Z,46.47
2018-12-17T10:41:24.926Z,46.60
2018-12-17T10:43:59.461Z,46.93
2018-12-17T10:46:27.675Z,46.20
2018-12-17T10:48:55.914Z,48.50
2018-12-17T10:51:24.150Z,45.63
2018-12-17T10:53:52.522Z,45.80
2018-12-17T10:56:20.848Z,48.53
2018-12-17T10:58:49.227Z,44.60
2018-12-17T11:01:22.973Z,46.63
2018-12-17T11:03:55.744Z,46.87
2018-12-17T11:06:24.025Z,47.57
2018-12-17T11:08:52.474Z,48.17
2018-12-17T11:11:20.713Z,45.07
2018-12-17T11:13:49.014Z,45.13
2018-12-17T11:16:17.896Z,44.57
2018-12-17T11:18:46.206Z,47.27
2018-12-17T11:21:14.498Z,45.93
2018-12-17T11:23:42.728Z,45.27
2018-12-17T11:26:11.263Z,45.90
2018-12-17T11:28:39.529Z,43.77
2018-12-17T11:31:07.892Z,44.70
2018-12-17T11:33:36.271Z,43.53
2018-12-17T11:36:04.675Z,50.63
2018-12-17T11:38:32.913Z,56.03
2018-12-17T11:41:01.273Z,50.93
2018-12-17T11:43:29.810Z,46.73
2018-12-17T11:45:58.109Z,48.40
2018-12-17T11:48:26.446Z,47.17
2018-12-17T11:50:54.783Z,48.20
2018-12-17T11:53:23.059Z,46.07
2018-12-17T11:55:51.287Z,46.20
2018-12-17T11:58:19.543Z,45.80
2018-12-17T12:00:53.987Z,49.00
2018-12-17T12:03:22.694Z,47.20
2018-12-17T12:05:50.998Z,47.70
2018-12-17T12:08:19.223Z,52.07
2018-12-17T12:10:47.461Z,49.27
2018-12-17T12:13:15.739Z,49.57
2018-12-17T12:15:44.016Z,50.20
2018-12-17T12:18:12.245Z,50.67
2018-12-17T12:20:40.595Z,48.33
2018-12-17T12:23:08.847Z,46.13
2018-12-17T12:25:37.087Z,44.10
2018-12-17T12:28:05.405Z,47.53
2018-12-17T12:30:33.790Z,48.70
2018-12-17T12:33:02.207Z,44.43
2018-12-17T12:35:30.466Z,55.23
2018-12-17T12:37:58.709Z,53.60
2018-12-17T12:40:27.059Z,50.90
2018-12-17T12:42:55.432Z,48.20
2018-12-17T12:45:23.793Z,45.60
2018-12-17T12:47:52.044Z,43.13
2018-12-17T12:50:27.016Z,42.73
2018-12-17T12:52:55.308Z,44.37
2018-12-17T12:55:23.560Z,41.40
2018-12-17T12:57:51.889Z,42.77
2018-12-17T13:00:20.588Z,40.57
2018-12-17T13:02:48.943Z,43.70
2018-12-17T13:05:17.250Z,42.50
2018-12-17T13:07:45.547Z,47.90
2018-12-17T13:10:13.996Z,47.37
2018-12-17T13:15:35.915Z,45.77
2018-12-17T13:18:05.011Z,42.50
2018-12-17T13:20:33.261Z,42.37
2018-12-17T13:23:01.536Z,44.13
2018-12-17T13:25:33.980Z,46.60
2018-12-17T13:30:55.670Z,45.30
2018-12-17T13:33:23.930Z,47.07
2018-12-17T13:35:52.513Z,45.27
2018-12-17T13:38:20.824Z,44.47
2018-12-17T13:40:49.811Z,45.60
2018-12-17T13:43:18.103Z,44.60
2018-12-17T13:45:46.353Z,42.93
2018-12-17T13:48:14.637Z,44.37
2018-12-17T13:50:42.859Z,45.37
2018-12-17T13:53:16.611Z,43.97
2018-12-17T13:55:44.840Z,45.17
2018-12-17T13:58:13.242Z,43.53
2018-12-17T14:00:41.633Z,47.07
2018-12-17T14:03:10.051Z,44.47
2018-12-17T14:05:38.769Z,43.60
2018-12-17T14:08:07.019Z,44.63
2018-12-17T14:10:40.875Z,45.57
2018-12-17T14:13:09.184Z,40.70
2018-12-17T14:15:42.916Z,40.83
2018-12-17T14:18:16.732Z,41.30
2018-12-17T14:20:50.413Z,43.90
2018-12-17T14:23:19.071Z,42.00
2018-12-17T14:25:47.362Z,41.77
2018-12-17T14:28:15.625Z,42.87
2018-12-17T14:30:43.978Z,42.53
2018-12-17T14:33:12.474Z,42.27
2018-12-17T14:35:44.971Z,44.00
2018-12-17T14:38:13.273Z,46.17
2018-12-17T14:40:41.506Z,48.03
2018-12-17T14:43:09.786Z,45.40
2018-12-17T14:45:38.232Z,44.93
2018-12-17T14:48:06.490Z,43.87
2018-12-17T14:50:34.881Z,42.73
2018-12-17T14:53:03.151Z,41.33
2018-12-17T14:55:31.418Z,45.27
2018-12-17T14:57:59.731Z,41.47
2018-12-17T15:00:28.413Z,38.20
2018-12-17T15:02:56.764Z,39.57
2018-12-17T15:05:25.065Z,39.20
2018-12-17T15:07:53.338Z,41.87
2018-12-17T15:10:21.865Z,39.13
2018-12-17T15:12:50.196Z,37.20
2018-12-17T15:15:18.451Z,38.23
2018-12-17T15:17:46.754Z,37.53
2018-12-17T15:20:15.010Z,40.60
2018-12-17T15:22:43.251Z,36.77
2018-12-17T15:25:11.729Z,38.23
2018-12-17T15:27:40.029Z,38.63
2018-12-17T15:30:08.730Z,38.20
2018-12-17T15:32:38.127Z,40.07
2018-12-17T15:35:07.286Z,37.63
2018-12-17T15:37:36.468Z,38.50
2018-12-17T15:40:05.614Z,39.30
2018-12-17T15:42:40.630Z,38.57
2018-12-17T15:45:05.405Z,39.00
2018-12-17T15:47:33.719Z,38.50
2018-12-17T15:50:02.046Z,36.33
2018-12-17T15:52:30.416Z,43.57
2018-12-17T15:54:58.698Z,40.20
2018-12-17T15:57:26.938Z,37.57
2018-12-17T15:59:55.192Z,38.43
2018-12-17T16:02:23.723Z,37.43
2018-12-17T16:04:52.104Z,39.13
2018-12-17T16:07:20.840Z,42.83
2018-12-17T16:09:51.118Z,42.00
2018-12-17T16:12:19.775Z,43.33
2018-12-17T16:14:48.094Z,40.53
2018-12-17T16:17:16.642Z,44.50
2018-12-17T16:19:44.988Z,43.60
2018-12-17T16:22:13.280Z,40.63
2018-12-17T16:24:41.640Z,36.30
2018-12-17T16:27:10.077Z,39.10
2018-12-17T16:29:38.331Z,39.90
2018-12-17T16:32:06.920Z,40.83
2018-12-17T16:34:35.362Z,40.63
2018-12-17T16:37:03.953Z,38.80
2018-12-17T16:39:32.336Z,39.30
2018-12-17T16:42:00.635Z,37.03
2018-12-17T16:44:28.905Z,38.40
2018-12-17T16:46:57.916Z,37.93
2018-12-17T16:49:26.285Z,39.33
2018-12-17T16:51:54.561Z,39.10
2018-12-17T16:54:23.011Z,38.20
2018-12-17T16:56:51.287Z,38.50
2018-12-17T16:59:19.594Z,36.20
2018-12-17T17:01:48.002Z,35.43
2018-12-17T17:04:16.258Z,37.70
2018-12-17T17:06:44.546Z,38.73
2018-12-17T17:09:12.865Z,37.23
2018-12-17T17:11:41.289Z,36.27
2018-12-17T17:14:09.642Z,33.93
2018-12-17T17:16:38.167Z,37.87
2018-12-17T17:19:06.468Z,36.10
2018-12-17T17:21:34.756Z,36.47
2018-12-17T17:24:03.069Z,34.97
2018-12-17T17:26:31.375Z,38.40
2018-12-17T17:31:53.004Z,34.77
2018-12-17T17:34:21.532Z,35.23
2018-12-17T17:36:49.832Z,35.03
2018-12-17T17:39:18.127Z,37.97
2018-12-17T17:41:46.468Z,35.80
2018-12-17T17:44:14.772Z,34.73
2018-12-17T17:46:43.070Z,35.77
2018-12-17T17:49:11.328Z,39.93
2018-12-17T17:51:40.165Z,37.20
2018-12-17T17:54:08.461Z,40.10
2018-12-17T17:59:29.290Z,38.40
2018-12-17T18:01:57.693Z,40.97
2018-12-17T18:04:26.193Z,37.90
2018-12-17T18:07:01.024Z,37.67
2018-12-17T18:09:29.371Z,34.13
2018-12-17T18:11:57.647Z,35.20
2018-12-17T18:14:26.006Z,38.33
2018-12-17T18:16:54.790Z,37.37
2018-12-17T18:19:23.997Z,38.80
2018-12-17T18:22:02.552Z,36.63
2018-12-17T18:24:30.807Z,38.33
2018-12-17T18:26:59.094Z,38.53
2018-12-17T18:29:28.296Z,40.73
2018-12-17T18:31:56.615Z,41.13
2018-12-17T18:34:25.125Z,37.47
2018-12-17T18:36:53.390Z,41.87
2018-12-17T18:39:22.146Z,41.77
2018-12-17T18:41:50.520Z,39.03
2018-12-17T18:44:18.800Z,39.77
2018-12-17T18:46:47.183Z,36.87
2018-12-17T18:49:15.502Z,36.00
2018-12-17T18:51:43.868Z,40.13
2018-12-17T18:54:12.165Z,36.27
2018-12-17T18:59:33.446Z,37.70
2018-12-17T19:02:01.715Z,36.73
2018-12-17T19:04:29.978Z,37.67
2018-12-17T19:06:58.253Z,38.20
2018-12-17T19:12:19.934Z,35.70
2018-12-17T19:14:54.234Z,34.77
2018-12-17T19:17:23.412Z,36.70
2018-12-17T19:19:51.700Z,34.93
2018-12-17T19:22:21.110Z,36.60
2018-12-17T19:27:42.256Z,37.40
2018-12-17T19:30:10.650Z,37.87
2018-12-17T19:32:40.289Z,37.03
2018-12-17T19:35:09.170Z,35.37
2018-12-17T19:37:37.421Z,37.80
2018-12-17T19:40:06.798Z,38.00
2018-12-17T19:42:35.122Z,35.37
2018-12-17T19:45:03.516Z,36.23
2018-12-17T19:47:31.878Z,38.07
2018-12-17T19:52:52.932Z,39.10
2018-12-17T19:55:21.368Z,38.93
2018-12-17T19:57:49.793Z,40.37
2018-12-17T20:00:18.299Z,36.93
2018-12-17T20:02:47.097Z,37.90
2018-12-17T20:05:15.794Z,38.33
2018-12-17T20:07:44.079Z,37.93
2018-12-17T20:10:17.787Z,37.17
2018-12-17T20:12:46.061Z,35.87
2018-12-17T20:15:14.474Z,37.57
2018-12-17T20:20:35.374Z,36.00
2018-12-17T20:23:03.844Z,36.57
2018-12-17T20:25:32.248Z,38.20
2018-12-17T20:28:00.530Z,38.57
2018-12-17T20:30:28.892Z,38.17
2018-12-17T20:32:57.292Z,38.80
2018-12-17T20:35:25.995Z,37.07
2018-12-17T20:37:54.353Z,36.87
2018-12-17T20:40:23.071Z,36.00
2018-12-17T20:42:52.146Z,37.93
2018-12-17T20:45:20.678Z,42.00
2018-12-17T20:47:49.556Z,39.60
2018-12-17T20:50:18.147Z,37.50
2018-12-17T20:52:46.694Z,38.70
2018-12-17T20:55:15.016Z,37.93
2018-12-17T20:57:43.861Z,40.87
2018-12-17T21:00:12.498Z,40.23
2018-12-17T21:02:40.995Z,41.67
2018-12-17T21:05:09.497Z,35.70
2018-12-17T21:07:37.919Z,38.00
2018-12-17T21:10:07.953Z,38.30
2018-12-17T21:12:36.401Z,38.87
2018-12-17T21:15:05.856Z,36.90
2018-12-17T21:17:34.197Z,39.97
2018-12-17T21:20:02.535Z,40.13
2018-12-17T21:22:31.012Z,36.37
2018-12-17T21:24:59.393Z,38.43
2018-12-17T21:27:27.790Z,37.90
2018-12-17T21:29:56.279Z,40.57
2018-12-17T21:32:24.640Z,40.23
2018-12-17T21:34:53.122Z,39.77
2018-12-17T21:37:21.676Z,39.80
2018-12-17T21:39:49.960Z,37.60
2018-12-17T21:42:18.348Z,37.07
2018-12-17T21:44:46.907Z,36.47
2018-12-17T21:47:15.196Z,38.00
2018-12-17T21:49:43.567Z,37.50
2018-12-17T21:52:11.880Z,37.63
2018-12-17T21:54:40.214Z,38.57
2018-12-17T21:57:08.542Z,37.23
2018-12-17T21:59:36.866Z,37.47
2018-12-17T22:02:05.187Z,37.73
2018-12-17T22:04:33.828Z,40.80
2018-12-17T22:07:02.170Z,38.40
2018-12-17T22:09:30.914Z,37.97
2018-12-17T22:11:59.293Z,37.53
2018-12-17T22:14:27.576Z,37.53
2018-12-17T22:16:55.885Z,39.60
2018-12-17T22:19:24.248Z,39.30
2018-12-17T22:24:45.282Z,45.03
2018-12-17T22:27:13.532Z,42.30
2018-12-17T22:29:41.856Z,43.50
2018-12-17T22:32:10.189Z,43.03
2018-12-17T22:34:38.799Z,42.00
2018-12-17T22:37:07.297Z,41.17
2018-12-17T22:39:35.642Z,39.73
2018-12-17T22:42:04.145Z,40.57
2018-12-17T22:44:32.447Z,40.20
2018-12-17T22:47:00.752Z,39.57
2018-12-17T22:49:29.034Z,40.20
2018-12-17T22:51:57.385Z,38.57
2018-12-17T22:54:25.786Z,40.23
2018-12-17T22:56:54.076Z,39.57
2018-12-17T22:59:22.333Z,39.13
2018-12-17T23:01:50.593Z,40.20
2018-12-17T23:04:18.963Z,42.23
2018-12-17T23:06:47.238Z,42.47
2018-12-17T23:09:14.528Z,41.17
2018-12-17T23:11:59.702Z,39.33
2018-12-17T23:14:39.484Z,38.97
2018-12-17T23:17:19.150Z,37.53
2018-12-17T23:19:48.112Z,39.70
2018-12-17T23:22:16.643Z,40.73
2018-12-17T23:24:44.912Z,42.13
2018-12-17T23:27:13.260Z,39.53
2018-12-17T23:29:41.520Z,39.90
2018-12-17T23:32:09.944Z,41.90
2018-12-17T23:34:38.244Z,43.00
2018-12-17T23:37:06.549Z,43.03
2018-12-17T23:39:34.824Z,42.40
2018-12-17T23:42:03.153Z,43.27
2018-12-17T23:44:35.693Z,43.97
2018-12-17T23:47:03.999Z,45.03
2018-12-17T23:49:32.257Z,43.93
2018-12-17T23:52:00.569Z,49.77
2018-12-17T23:54:28.839Z,50.40
2018-12-17T23:56:57.095Z,48.93
2018-12-17T23:59:25.387Z,50.67
